Sunday, May 27, 2018, 5:39 PM GMT
Back to Local

CYQM, Moncton, N. B.

Location: , , Canada Lat: 46.117
Local Time: 5:39 PM GMT (17:39 GMT) Lon: -64.683
Time Zone: GMT Elev: 232 ft

Show me the last for .
Show Decoded

2018-05-27 17:00 METAR CYQM 271700Z VRB03KT 15SM FEW045 FEW250 15/00 A3029 RMK CU1CI1 CU TR CI TR
                 SLP261 =
2018-05-27 16:00 METAR CYQM 271600Z VRB09KT 15SM FEW042 FEW250 14/02 A3030 RMK CU1CI1 CI TR
                 SLP265 =
2018-05-27 15:00 METAR CYQM 271500Z 06005G16KT 010V140 15SM FEW043 13/01 A3031 RMK CU2 SLP268 =
2018-05-27 14:00 METAR CYQM 271400Z 10009KT 15SM FEW036 12/02 A3032 RMK CU1 SLP270 =
2018-05-27 13:00 METAR CYQM 271300Z VRB02KT 15SM FEW021 10/03 A3032 RMK CU1 SLP270 =
2018-05-27 12:00 METAR CYQM 271200Z VRB02KT 15SM FEW011 FEW250 07/03 A3032 RMK CU1CI1 CI TR
                 SLP271 =
2018-05-27 11:00 METAR CYQM 271100Z 21004KT 15SM VCFG FEW004 FEW012 FEW250 04/04 A3030 RMK
                 SF1CF1CI1 SF TR CF TR VIS W 2 SLP265 =
2018-05-27 10:36 METAR CYQM 271036Z 20003KT 15SM R06/4500VP6000FT/U VCPO FEW001 FEW250 03/02
                 A3029 RMK SF1CI1 SF TR VIS W `11/2 SLP262 =
2018-05-27 10:00 METAR CYQM 271000Z 00000KT 15SM VCFG FEW012 FEW250 02/02 A3028 RMK CF1CI1 CF TR
                 CI TR VIS S-W 11/2 SLP260 =
2018-05-27 09:20 METAR CYQM 270920Z 24004KT 12SM R06/2600V5500FT/U VCFG FEW012 FEW250 00/M00
                 A3028 RMK CF1CI1 CF TR VIS S-W 1 SLP257 =
2018-05-27 09:16 METAR CYQM 270916Z 23004KT 1SM R06/2600V4000FT/N R29/P6000FT/N BR PRFG FEW250
                 00/M00 A3027 RMK FG1CI1 VIS SE-W 3/8 SLP255 =
2018-05-27 09:07 METAR CYQM 270907Z 22004KT 210V280 1/4SM R06/1400V2200FT/N R29/P6000FT/N FG
                 FEW250 00/M01 A3027 RMK FG1CI1 VIS NE 3 SLP255 =
2018-05-27 09:03 METAR CYQM 270903Z 22006KT 210V310 1SM R06/1600FT/N R29/P6000FT/D BR PRFG FEW012
                 FEW250 00/M00 A3027 RMK CF1CI1 CF TR VIS SE-N 1/2 VIS N-SE 15 SLP254 =
2018-05-27 09:00 METAR CYQM 270900Z 23003KT 210V320 15SM VCFG FEW012 FEW250 01/00 A3027 RMK
                 CF1CI1 CF TR VIS SW-NW 3/4 SLP253 =
2018-05-27 08:00 METAR CYQM 270800Z 00000KT 12SM VCFG FEW012 FEW240 01/00 A3023 RMK CF1CI1 CF TR
                 VIS S - W 5 SLP242 =
2018-05-27 07:00 METAR CYQM 270700Z 35004KT 15SM FEW014 02/01 A3021 RMK SF2 SLP234 =
2018-05-27 06:35 METAR CYQM 270635Z 02003KT 15SM SCT014 02/01 A3020 RMK SF3 SLP231 =
2018-05-27 06:00 METAR CYQM 270600Z 29002KT 15SM BKN014 02/01 A3019 RMK SF5 SLP227 =
2018-05-27 05:50 METAR CYQM 270550Z 31002KT 15SM BKN014 02/01 A3018 RMK SF5 SLP224 =
2018-05-27 05:33 METAR CYQM 270533Z 30003KT 15SM FEW012 FEW250 02/01 A3017 RMK SF1CI1 SF TR
                 SLP222 =
2018-05-27 05:00 METAR CYQM 270500Z 31004KT 15SM FEW015 FEW250 03/02 A3016 RMK SF1CI1 SF TR
                 SLP216 =
2018-05-27 04:00 METAR CYQM 270400Z 00000KT 15SM FEW014 SCT250 03/03 A3014 RMK SF2CI1 SLP211 =
2018-05-27 03:00 METAR CYQM 270300Z 04004KT 15SM FEW020 FEW250 03/02 A3012 RMK SC1CI1 SLP205 =
2018-05-27 02:24 METAR CYQM 270224Z 02006KT 15SM SKC 02/02 A3011 RMK SLP200 =
2018-05-27 02:00 METAR CYQM 270200Z 02006KT 15SM FEW250 03/02 A3010 RMK CI1 SLP196 =
2018-05-27 01:00 METAR CYQM 270100Z 02006KT 15SM FEW020 FEW240 04/03 A3006 RMK SC1CI1 SC TR
                 SLP184 =
2018-05-27 00:00 METAR CYQM 270000Z 03006KT 15SM FEW020 FEW220 FEW250 05/03 A3002 RMK SC1CI1CI1
                 SC TR CI TR CU ASOCTD SLP171 =
2018-05-26 23:00 METAR CYQM 262300Z 03012G18KT 15SM FEW020 FEW250 08/02 A2998 RMK SC1CI1 SC TR CU
                 ASOCTD SLP156 =
2018-05-26 22:00 METAR CYQM 262200Z 04013KT 15SM FEW020 FEW045 FEW250 10/04 A2993 RMK CU1SC1CI2
                 CU TR SC TR PRESRR SLP140 =
2018-05-26 21:00 METAR CYQM 262100Z 02014G20KT 15SM FEW020 FEW050 SCT250 12/07 A2989 RMK
                 CU1SC1CI2 PRESRR SLP125 =
2018-05-26 20:00 METAR CYQM 262000Z 04012KT 15SM FEW030 BKN250 12/07 A2984 RMK CU1CI5 SLP108 =
2018-05-26 19:00 METAR CYQM 261900Z 02011KT 15SM FEW020 BKN250 11/06 A2980 RMK CU1CI6 SLP094 =
2018-05-26 18:00 METAR CYQM 261800Z 02015KT 15SM FEW017 SCT030 BKN220 12/07 A2978 RMK CU2SC2CI3
                 SLP087 =

Support USWX by starting your Amazon purchase here.